createdAt,value
2023-02-27T00:01:28.055Z,-0.3
2023-02-27T00:03:33.432Z,-0.29
2023-02-27T00:05:39.017Z,-0.28
2023-02-27T00:07:44.524Z,-0.27
2023-02-27T00:09:50.143Z,-0.29
2023-02-27T00:11:55.449Z,-0.32
2023-02-27T00:14:01.176Z,-0.35
2023-02-27T00:16:06.808Z,-0.36
2023-02-27T00:18:15.254Z,-0.39
2023-02-27T00:20:20.576Z,-0.38
2023-02-27T00:22:26.041Z,-0.41
2023-02-27T00:24:31.234Z,-0.4
2023-02-27T00:26:36.666Z,-0.41
2023-02-27T00:28:42.204Z,-0.43
2023-02-27T00:30:47.666Z,-0.41
2023-02-27T00:32:53.095Z,-0.39
2023-02-27T00:34:58.359Z,-0.37
2023-02-27T00:37:03.926Z,-0.36
2023-02-27T00:39:09.400Z,-0.37
2023-02-27T00:41:14.957Z,-0.36
2023-02-27T00:43:20.472Z,-0.37
2023-02-27T00:45:26.214Z,-0.41
2023-02-27T00:47:31.515Z,-0.42
2023-02-27T00:49:36.940Z,-0.43
2023-02-27T00:51:42.454Z,-0.44
2023-02-27T00:53:47.726Z,-0.41
2023-02-27T00:55:53.050Z,-0.39
2023-02-27T00:57:58.578Z,-0.38
2023-02-27T01:00:03.842Z,-0.39
2023-02-27T01:02:09.020Z,-0.4
2023-02-27T01:04:14.623Z,-0.41
2023-02-27T01:06:20.062Z,-0.41
2023-02-27T01:08:25.625Z,-0.41
2023-02-27T01:10:31.575Z,-0.41
2023-02-27T01:12:36.828Z,-0.42
2023-02-27T01:14:42.516Z,-0.45
2023-02-27T01:16:47.770Z,-0.45
2023-02-27T01:18:53.391Z,-0.46
2023-02-27T01:20:58.963Z,-0.49
2023-02-27T01:23:04.386Z,-0.49
2023-02-27T01:25:09.602Z,-0.47
2023-02-27T01:27:15.171Z,-0.48
2023-02-27T01:29:20.672Z,-0.48
2023-02-27T01:31:26.619Z,-0.48
2023-02-27T01:33:33.182Z,-0.49
2023-02-27T01:35:38.661Z,-0.47
2023-02-27T01:37:44.004Z,-0.5
2023-02-27T01:39:49.476Z,-0.5
2023-02-27T01:41:55.238Z,-0.52
2023-02-27T01:44:00.687Z,-0.57
2023-02-27T01:46:05.963Z,-0.58
2023-02-27T01:48:11.510Z,-0.58
2023-02-27T01:50:16.928Z,-0.6
2023-02-27T01:52:22.392Z,-0.61
2023-02-27T01:54:27.954Z,-0.63
2023-02-27T01:56:33.287Z,-0.62
2023-02-27T01:58:38.716Z,-0.61
2023-02-27T02:00:43.990Z,-0.6
2023-02-27T02:02:49.433Z,-0.61
2023-02-27T02:04:55.246Z,-0.61
2023-02-27T02:07:00.652Z,-0.64
2023-02-27T02:09:06.003Z,-0.64
2023-02-27T02:11:11.646Z,-0.66
2023-02-27T02:13:17.075Z,-0.66
2023-02-27T02:15:22.234Z,-0.67
2023-02-27T02:17:27.722Z,-0.68
2023-02-27T02:19:33.470Z,-0.69
2023-02-27T02:21:38.900Z,-0.7
2023-02-27T02:23:43.783Z,-0.7
2023-02-27T02:25:49.429Z,-0.73
2023-02-27T02:27:54.774Z,-0.76
2023-02-27T02:30:00.092Z,-0.78
2023-02-27T02:32:05.704Z,-0.78
2023-02-27T02:34:11.143Z,-0.79
2023-02-27T02:36:16.600Z,-0.79
2023-02-27T02:38:21.677Z,-0.81
2023-02-27T02:40:27.343Z,-0.82
2023-02-27T02:42:32.585Z,-0.8
2023-02-27T02:44:38.070Z,-0.77
2023-02-27T02:46:43.402Z,-0.75
2023-02-27T02:48:48.911Z,-0.74
2023-02-27T02:50:55.467Z,-0.73
2023-02-27T02:53:00.706Z,-0.69
2023-02-27T02:55:05.924Z,-0.68
2023-02-27T02:57:12.706Z,-0.67
2023-02-27T02:59:18.104Z,-0.68
2023-02-27T03:01:23.360Z,-0.66
2023-02-27T03:03:29.973Z,-0.65
2023-02-27T03:05:35.237Z,-0.67
2023-02-27T03:07:40.490Z,-0.67
2023-02-27T03:09:46.670Z,-0.67
2023-02-27T03:11:51.955Z,-0.67
2023-02-27T03:13:57.323Z,-0.67
2023-02-27T03:16:02.763Z,-0.67
2023-02-27T03:18:08.385Z,-0.65
2023-02-27T03:20:13.887Z,-0.66
2023-02-27T03:22:19.244Z,-0.67
2023-02-27T03:24:25.710Z,-0.68
2023-02-27T03:26:31.177Z,-0.68
2023-02-27T03:28:36.538Z,-0.73
2023-02-27T03:30:41.704Z,-0.7
2023-02-27T03:32:47.805Z,-0.72
2023-02-27T03:34:53.044Z,-0.72
2023-02-27T03:36:58.396Z,-0.73
2023-02-27T03:39:03.485Z,-0.73
2023-02-27T03:41:08.765Z,-0.74
2023-02-27T03:43:14.194Z,-0.73
2023-02-27T03:45:19.409Z,-0.71
2023-02-27T03:47:26.216Z,-0.67
2023-02-27T03:49:34.521Z,-0.66
2023-02-27T03:51:40.154Z,-0.63
2023-02-27T03:53:45.731Z,-0.62
2023-02-27T03:55:51.337Z,-0.62
2023-02-27T03:57:56.637Z,-0.6
2023-02-27T04:00:03.241Z,-0.6
2023-02-27T04:02:08.903Z,-0.58
2023-02-27T04:04:14.528Z,-0.58
2023-02-27T04:06:19.883Z,-0.58
2023-02-27T04:08:25.307Z,-0.58
2023-02-27T04:10:30.619Z,-0.57
2023-02-27T04:12:35.979Z,-0.57
2023-02-27T04:14:41.634Z,-0.6
2023-02-27T04:16:47.041Z,-0.62
2023-02-27T04:18:52.428Z,-0.6
2023-02-27T04:21:00.770Z,-0.62
2023-02-27T04:23:06.476Z,-0.65
2023-02-27T04:25:11.579Z,-0.71
2023-02-27T04:27:16.714Z,-0.74
2023-02-27T04:29:22.062Z,-0.72
2023-02-27T04:31:27.725Z,-0.69
2023-02-27T04:33:34.603Z,-0.75
2023-02-27T04:35:39.868Z,-0.81
2023-02-27T04:37:45.243Z,-0.85
2023-02-27T04:39:50.537Z,-0.88
2023-02-27T04:41:55.765Z,-0.9
2023-02-27T04:44:01.631Z,-0.95
2023-02-27T04:46:07.411Z,-0.98
2023-02-27T04:48:12.909Z,-1
2023-02-27T04:50:18.150Z,-0.99
2023-02-27T04:52:23.725Z,-0.98
2023-02-27T04:54:29.032Z,-0.99
2023-02-27T04:56:34.318Z,-1
2023-02-27T04:58:39.859Z,-1.03
2023-02-27T05:00:45.028Z,-1.03
2023-02-27T05:02:50.794Z,-1.04
2023-02-27T05:04:56.254Z,-1.05
2023-02-27T05:07:03.092Z,-1.04
2023-02-27T05:09:08.462Z,-1.04
2023-02-27T05:11:13.512Z,-1.05
2023-02-27T05:13:18.842Z,-1.04
2023-02-27T05:15:24.124Z,-1.02
2023-02-27T05:17:29.648Z,-0.99
2023-02-27T05:19:36.468Z,-0.99
2023-02-27T05:21:41.789Z,-0.99
2023-02-27T05:23:47.216Z,-1
2023-02-27T05:25:52.516Z,-1
2023-02-27T05:27:58.129Z,-0.99
2023-02-27T05:30:03.459Z,-1
2023-02-27T05:32:09.085Z,-0.97
2023-02-27T05:34:14.984Z,-0.95
2023-02-27T05:36:20.056Z,-0.96
2023-02-27T05:38:25.321Z,-0.96
2023-02-27T05:40:31.150Z,-0.98
2023-02-27T05:42:36.952Z,-0.96
2023-02-27T05:44:43.664Z,-0.97
2023-02-27T05:46:48.963Z,-0.96
2023-02-27T05:48:55.896Z,-0.95
2023-02-27T05:51:01.555Z,-0.95
2023-02-27T05:53:07.116Z,-0.94
2023-02-27T05:55:12.555Z,-0.93
2023-02-27T05:57:21.132Z,-0.92
2023-02-27T05:59:26.721Z,-0.89
2023-02-27T06:01:32.819Z,-0.88
2023-02-27T06:03:38.351Z,-0.86
2023-02-27T06:05:44.108Z,-0.8
2023-02-27T06:07:49.705Z,-0.81
2023-02-27T06:09:55.244Z,-0.76
2023-02-27T06:12:01.080Z,-0.75
2023-02-27T06:14:06.563Z,-0.74
2023-02-27T06:16:11.942Z,-0.69
2023-02-27T06:18:17.863Z,-0.67
2023-02-27T06:20:23.463Z,-0.67
2023-02-27T06:22:29.335Z,-0.63
2023-02-27T06:24:34.665Z,-0.63
2023-02-27T06:26:40.474Z,-0.62
2023-02-27T06:28:45.923Z,-0.62
2023-02-27T06:30:51.576Z,-0.63
2023-02-27T06:32:57.288Z,-0.65
2023-02-27T06:35:02.750Z,-0.67
2023-02-27T06:37:08.602Z,-0.64
2023-02-27T06:39:14.049Z,-0.62
2023-02-27T06:41:19.910Z,-0.62
2023-02-27T06:43:25.516Z,-0.66
2023-02-27T06:45:31.904Z,-0.68
2023-02-27T06:47:38.302Z,-0.69
2023-02-27T06:49:44.306Z,-0.66
2023-02-27T06:51:49.671Z,-0.69
2023-02-27T06:53:55.237Z,-0.68
2023-02-27T06:56:01.192Z,-0.68
2023-02-27T06:58:07.005Z,-0.72
2023-02-27T07:00:13.181Z,-0.68
2023-02-27T07:02:19.216Z,-0.71
2023-02-27T07:04:26.363Z,-0.7
2023-02-27T07:07:33.431Z,-0.58
2023-02-27T07:09:43.380Z,-0.52
2023-02-27T07:11:49.084Z,-0.44
2023-02-27T07:13:54.315Z,-0.43
2023-02-27T07:15:59.814Z,-0.32
2023-02-27T07:18:05.800Z,-0.3
2023-02-27T07:20:11.122Z,-0.22
2023-02-27T07:22:16.440Z,-0.17
2023-02-27T07:24:21.926Z,-0.15
2023-02-27T07:26:27.877Z,-0.32
2023-02-27T07:28:34.263Z,-0.23
2023-02-27T07:30:40.169Z,-0.22
2023-02-27T07:32:46.586Z,-0.11
2023-02-27T07:34:52.153Z,0.04
2023-02-27T07:36:58.095Z,0.08
2023-02-27T07:39:04.167Z,0.12
2023-02-27T07:41:18.503Z,0.14
2023-02-27T07:43:35.774Z,0.28
2023-02-27T07:45:41.537Z,0.28
2023-02-27T07:47:47.357Z,0.36
2023-02-27T07:49:53.989Z,0.27
2023-02-27T07:51:59.875Z,0.42
2023-02-27T07:54:05.936Z,0.42
2023-02-27T07:56:11.600Z,0.45
2023-02-27T07:58:18.118Z,0.63
2023-02-27T08:00:24.129Z,0.67
2023-02-27T08:02:30.883Z,0.55
2023-02-27T08:04:37.393Z,0.38
2023-02-27T08:06:44.140Z,0.47
2023-02-27T08:08:50.716Z,0.32
2023-02-27T08:10:56.860Z,0.29
2023-02-27T08:13:03.042Z,0.37
2023-02-27T08:15:09.416Z,0.29
2023-02-27T08:17:15.802Z,0
2023-02-27T08:19:22.446Z,-0.09
2023-02-27T08:21:29.143Z,-0.14
2023-02-27T08:23:35.438Z,0.12
2023-02-27T08:25:42.117Z,0.31
2023-02-27T08:27:48.054Z,0.33
2023-02-27T08:29:53.870Z,0.36
2023-02-27T08:32:00.499Z,0.39
2023-02-27T08:34:10.088Z,0.38
2023-02-27T08:36:16.015Z,0.28
2023-02-27T08:38:21.927Z,0.23
2023-02-27T08:40:30.941Z,0.29
2023-02-27T08:42:36.999Z,0.38
2023-02-27T08:44:42.768Z,0.45
2023-02-27T08:46:48.302Z,0.31
2023-02-27T08:48:54.122Z,0.19
2023-02-27T08:51:00.230Z,0.18
2023-02-27T08:53:06.154Z,0.25
2023-02-27T08:55:12.614Z,0.29
2023-02-27T08:57:18.567Z,0.27
2023-02-27T08:59:23.862Z,0.28
2023-02-27T09:01:29.959Z,0.46
2023-02-27T09:03:36.588Z,0.69
2023-02-27T09:05:42.965Z,0.93
2023-02-27T09:07:49.256Z,1.34
2023-02-27T09:09:55.057Z,1.75
2023-02-27T09:12:01.119Z,2.28
2023-02-27T09:14:06.770Z,2.16
2023-02-27T09:16:15.547Z,2.38
2023-02-27T09:18:21.069Z,2.42
2023-02-27T09:20:26.587Z,2.62
2023-02-27T09:22:32.557Z,2.42
2023-02-27T09:24:38.498Z,2.77
2023-02-27T09:26:46.373Z,4.12
2023-02-27T09:28:54.337Z,4.73
2023-02-27T09:30:59.530Z,4.64
2023-02-27T09:33:06.393Z,4.61
2023-02-27T09:35:11.841Z,6.06
2023-02-27T09:37:17.368Z,4.3
2023-02-27T09:39:22.691Z,3.35
2023-02-27T09:41:28.416Z,3.72
2023-02-27T09:43:34.562Z,3.76
2023-02-27T09:45:39.901Z,3.79
2023-02-27T09:47:45.785Z,2.8
2023-02-27T09:49:51.158Z,3.09
2023-02-27T09:51:56.716Z,3.81
2023-02-27T09:54:01.967Z,3.74
2023-02-27T09:56:07.484Z,3.46
2023-02-27T09:58:12.725Z,3.32
2023-02-27T10:00:17.698Z,2.46
2023-02-27T10:02:23.428Z,2.75
2023-02-27T10:04:29.195Z,3.75
2023-02-27T10:06:34.901Z,3.65
2023-02-27T10:08:40.193Z,4.28
2023-02-27T10:10:45.877Z,5.09
2023-02-27T10:12:51.212Z,5.33
2023-02-27T10:14:57.338Z,5.33
2023-02-27T10:17:03.212Z,5.44
2023-02-27T10:19:09.160Z,4.79
2023-02-27T10:21:14.668Z,5.64
2023-02-27T10:23:20.157Z,5.93
2023-02-27T10:25:31.493Z,4.05
2023-02-27T10:27:37.091Z,4.02
2023-02-27T10:29:42.557Z,3.03
2023-02-27T10:31:47.906Z,2.36
2023-02-27T10:33:53.809Z,2.66
2023-02-27T10:36:00.762Z,2.21
2023-02-27T10:38:08.112Z,2.08
2023-02-27T10:40:13.323Z,1.74
2023-02-27T10:42:18.860Z,1.32
2023-02-27T10:44:24.768Z,1.91
2023-02-27T10:46:30.602Z,2.51
2023-02-27T10:48:39.937Z,2.3
2023-02-27T10:50:45.699Z,3.48
2023-02-27T10:52:51.348Z,4.05
2023-02-27T10:54:56.689Z,3.45
2023-02-27T10:57:02.296Z,3.55
2023-02-27T10:59:07.595Z,3.21
2023-02-27T11:01:12.947Z,3.99
2023-02-27T11:03:18.685Z,3.87
2023-02-27T11:05:24.047Z,2.84
2023-02-27T11:07:29.518Z,3.25
2023-02-27T11:09:35.829Z,3.47
2023-02-27T11:11:41.549Z,3.16
2023-02-27T11:13:47.412Z,2.86
2023-02-27T11:15:52.771Z,3.42
2023-02-27T11:17:58.308Z,3.54
2023-02-27T11:20:04.181Z,4.43
2023-02-27T11:22:09.987Z,3.39
2023-02-27T11:24:15.536Z,4.01
2023-02-27T11:26:21.286Z,4.94
2023-02-27T11:28:26.780Z,4.94
2023-02-27T11:30:32.194Z,5.48
2023-02-27T11:32:38.247Z,5.04
2023-02-27T11:34:44.000Z,5.5
2023-02-27T11:36:49.674Z,5.72
2023-02-27T11:38:57.173Z,5.6
2023-02-27T11:41:02.530Z,4.43
2023-02-27T11:43:08.377Z,3.89
2023-02-27T11:45:14.128Z,2.26
2023-02-27T11:48:52.423Z,2.07
2023-02-27T11:50:58.048Z,1.89
2023-02-27T11:53:04.247Z,1.85
2023-02-27T11:55:09.575Z,1.74
2023-02-27T11:57:15.236Z,1.56
2023-02-27T11:59:21.394Z,1.23
2023-02-27T12:01:27.896Z,1.13
2023-02-27T12:03:33.862Z,1.01
2023-02-27T12:05:39.495Z,1.03
2023-02-27T12:07:45.953Z,1.54
2023-02-27T12:09:51.396Z,1.63
2023-02-27T12:11:56.697Z,1.68
2023-02-27T12:14:03.978Z,1.75
2023-02-27T12:16:09.811Z,1.63
2023-02-27T12:18:15.643Z,1.71
2023-02-27T12:20:21.569Z,1.85
2023-02-27T12:22:27.410Z,1.54
2023-02-27T12:24:33.833Z,1.67
2023-02-27T12:26:39.773Z,1.45
2023-02-27T12:28:45.729Z,1.1
2023-02-27T12:30:51.260Z,1.06
2023-02-27T12:32:57.097Z,0.78
2023-02-27T12:35:02.926Z,0.82
2023-02-27T12:37:09.062Z,0.82
2023-02-27T12:39:18.164Z,0.71
2023-02-27T12:41:23.437Z,0.6
2023-02-27T12:43:30.836Z,0.67
2023-02-27T12:45:36.933Z,0.85
2023-02-27T12:47:42.813Z,0.78
2023-02-27T12:49:48.737Z,0.79
2023-02-27T12:51:54.398Z,1.03
2023-02-27T12:53:59.760Z,0.69
2023-02-27T12:56:05.276Z,0.82
2023-02-27T12:58:11.294Z,0.95
2023-02-27T13:00:16.790Z,0.75
2023-02-27T13:02:23.773Z,0.45
2023-02-27T13:04:29.923Z,0.46
2023-02-27T13:06:37.299Z,0.49
2023-02-27T13:08:43.690Z,0.4
2023-02-27T13:10:50.124Z,0.59
2023-02-27T13:12:55.843Z,0.69
2023-02-27T13:15:01.318Z,0.84
2023-02-27T13:17:06.886Z,0.73
2023-02-27T13:19:13.969Z,0.85
2023-02-27T13:21:19.645Z,0.79
2023-02-27T13:23:27.393Z,0.86
2023-02-27T13:25:32.753Z,0.99
2023-02-27T13:27:38.768Z,1.07
2023-02-27T13:29:44.571Z,1.12
2023-02-27T13:31:50.447Z,1.15
2023-02-27T13:33:58.128Z,1
2023-02-27T13:36:04.349Z,0.79
2023-02-27T13:38:11.161Z,0.72
2023-02-27T13:40:17.648Z,0.8
2023-02-27T13:42:23.844Z,0.74
2023-02-27T13:44:31.184Z,0.6
2023-02-27T13:46:37.276Z,0.48
2023-02-27T13:48:44.032Z,0.47
2023-02-27T13:50:49.763Z,0.48
2023-02-27T13:52:55.963Z,0.29
2023-02-27T13:55:10.207Z,0.24
2023-02-27T13:57:17.597Z,0.28
2023-02-27T13:59:23.782Z,0.23
2023-02-27T14:01:32.976Z,0.11
2023-02-27T14:03:39.332Z,0.03
2023-02-27T14:05:45.769Z,-0.12
2023-02-27T14:07:52.476Z,-0.11
2023-02-27T14:09:58.452Z,0.04
2023-02-27T14:12:04.707Z,0.13
2023-02-27T14:14:13.848Z,0.04
2023-02-27T14:16:20.412Z,0.06
2023-02-27T14:18:33.859Z,0.2
2023-02-27T14:20:41.093Z,0.14
2023-02-27T14:22:47.343Z,-0.15
2023-02-27T14:25:02.318Z,-0.16
2023-02-27T14:27:12.112Z,-0.15
2023-02-27T14:29:18.418Z,-0.11
2023-02-27T14:31:25.082Z,-0.05
2023-02-27T14:33:40.279Z,-0.12
2023-02-27T14:35:46.674Z,-0.24
2023-02-27T14:37:53.329Z,-0.2
2023-02-27T14:40:01.201Z,-0.2
2023-02-27T14:42:08.533Z,-0.1
2023-02-27T14:44:14.849Z,-0.13
2023-02-27T14:46:21.188Z,-0.3
2023-02-27T14:48:27.541Z,-0.31
2023-02-27T14:50:34.090Z,-0.44
2023-02-27T14:52:40.116Z,-0.44
2023-02-27T14:54:46.084Z,-0.52
2023-02-27T14:56:52.226Z,-0.55
2023-02-27T14:59:04.174Z,-0.47
2023-02-27T15:01:12.273Z,-0.46
2023-02-27T15:03:19.190Z,-0.48
2023-02-27T15:05:25.454Z,-0.47
2023-02-27T15:07:32.210Z,-0.44
2023-02-27T15:09:38.565Z,-0.43
2023-02-27T15:11:54.202Z,-0.44
2023-02-27T15:14:09.377Z,-0.46
2023-02-27T15:16:16.943Z,-0.46
2023-02-27T15:18:24.020Z,-0.51
2023-02-27T15:20:30.329Z,-0.65
2023-02-27T15:22:39.256Z,-0.66
2023-02-27T15:24:50.188Z,-0.65
2023-02-27T15:26:58.577Z,-0.73
2023-02-27T15:29:04.777Z,-0.7
2023-02-27T15:31:12.691Z,-0.63
2023-02-27T15:33:19.337Z,-0.76
2023-02-27T15:35:25.909Z,-0.69
2023-02-27T15:37:32.439Z,-0.69
2023-02-27T15:39:38.993Z,-0.71
2023-02-27T15:41:47.579Z,-0.74
2023-02-27T15:43:54.348Z,-0.79
2023-02-27T15:46:01.032Z,-0.8
2023-02-27T15:48:06.599Z,-0.79
2023-02-27T15:50:13.544Z,-0.78
2023-02-27T15:52:19.820Z,-0.81
2023-02-27T15:54:26.195Z,-0.8
2023-02-27T15:56:32.935Z,-0.8
2023-02-27T15:58:39.260Z,-0.8
2023-02-27T16:00:46.348Z,-0.83
2023-02-27T16:02:53.130Z,-0.85
2023-02-27T16:05:00.100Z,-0.92
2023-02-27T16:07:06.493Z,-0.9
2023-02-27T16:09:16.553Z,-0.92
2023-02-27T16:11:23.790Z,-0.94
2023-02-27T16:13:30.774Z,-0.88
2023-02-27T16:15:38.042Z,-0.88
2023-02-27T16:17:44.824Z,-0.88
2023-02-27T16:19:51.453Z,-0.91
2023-02-27T16:22:00.260Z,-0.96
2023-02-27T16:24:07.165Z,-0.95
2023-02-27T16:26:13.809Z,-0.95
2023-02-27T16:28:21.157Z,-0.96
2023-02-27T16:30:28.772Z,-1
2023-02-27T16:32:36.689Z,-1.02
2023-02-27T16:34:45.904Z,-1.02
2023-02-27T16:36:54.752Z,-1.04
2023-02-27T16:39:07.808Z,-1.03
2023-02-27T16:41:14.144Z,-1.06
2023-02-27T16:43:23.496Z,-1.07
2023-02-27T16:45:31.118Z,-1.06
2023-02-27T16:47:37.641Z,-1.06
2023-02-27T16:49:44.033Z,-1.07
2023-02-27T16:51:50.793Z,-1.09
2023-02-27T16:53:57.453Z,-1.1
2023-02-27T16:56:04.497Z,-1.11
2023-02-27T16:58:11.157Z,-1.1
2023-02-27T17:00:17.677Z,-1.08
2023-02-27T17:02:25.311Z,-1.08
2023-02-27T17:04:32.651Z,-1.07
2023-02-27T17:06:42.060Z,-1.09
2023-02-27T17:08:49.570Z,-1.08
2023-02-27T17:11:01.279Z,-1.11
2023-02-27T17:13:11.112Z,-1.17
2023-02-27T17:15:17.645Z,-1.18
2023-02-27T17:17:25.251Z,-1.18
2023-02-27T17:19:31.962Z,-1.17
2023-02-27T17:21:42.062Z,-1.15
2023-02-27T17:23:49.732Z,-1.15
2023-02-27T17:25:59.711Z,-1.14
2023-02-27T17:28:08.494Z,-1.15
2023-02-27T17:30:15.801Z,-1.16
2023-02-27T17:32:33.556Z,-1.19
2023-02-27T17:34:43.240Z,-1.22
2023-02-27T17:36:51.669Z,-1.23
2023-02-27T17:38:59.800Z,-1.24
2023-02-27T17:41:07.594Z,-1.25
2023-02-27T17:43:15.688Z,-1.28
2023-02-27T17:45:24.409Z,-1.28
2023-02-27T17:47:32.324Z,-1.31
2023-02-27T17:49:41.735Z,-1.34
2023-02-27T17:51:51.183Z,-1.37
2023-02-27T17:54:01.647Z,-1.37
2023-02-27T17:56:09.841Z,-1.34
2023-02-27T17:58:18.030Z,-1.31
2023-02-27T18:00:30.392Z,-1.25
2023-02-27T18:02:40.794Z,-1.25
2023-02-27T18:04:53.823Z,-1.26
2023-02-27T18:07:02.755Z,-1.3
2023-02-27T18:09:12.733Z,-1.33
2023-02-27T18:11:22.991Z,-1.34
2023-02-27T18:13:32.184Z,-1.37
2023-02-27T18:15:42.920Z,-1.38
2023-02-27T18:17:51.814Z,-1.37
2023-02-27T18:20:03.561Z,-1.35
2023-02-27T18:22:12.645Z,-1.35
2023-02-27T18:24:23.622Z,-1.34
2023-02-27T18:26:33.096Z,-1.34
2023-02-27T18:28:44.500Z,-1.33
2023-02-27T18:30:54.554Z,-1.29
2023-02-27T18:33:03.519Z,-1.25
2023-02-27T18:35:13.421Z,-1.25
2023-02-27T18:37:25.832Z,-1.27
2023-02-27T18:39:35.562Z,-1.29
2023-02-27T18:41:45.625Z,-1.28
2023-02-27T18:43:55.949Z,-1.25
2023-02-27T18:46:06.806Z,-1.22
2023-02-27T18:48:17.927Z,-1.21
2023-02-27T18:50:27.714Z,-1.23
2023-02-27T18:52:39.698Z,-1.23
2023-02-27T18:54:58.800Z,-1.23
2023-02-27T18:57:10.017Z,-1.21
2023-02-27T18:59:18.722Z,-1.22
2023-02-27T19:01:40.081Z,-1.24
2023-02-27T19:03:52.271Z,-1.26
2023-02-27T19:06:02.002Z,-1.26
2023-02-27T19:08:16.493Z,-1.26
2023-02-27T19:10:27.672Z,-1.25
2023-02-27T19:12:41.384Z,-1.23
2023-02-27T19:14:56.464Z,-1.23
2023-02-27T19:17:07.299Z,-1.25
2023-02-27T19:19:15.816Z,-1.24
2023-02-27T19:21:24.900Z,-1.23
2023-02-27T19:23:35.759Z,-1.25
2023-02-27T19:25:44.998Z,-1.25
2023-02-27T19:27:55.656Z,-1.25
2023-02-27T19:30:11.950Z,-1.27
2023-02-27T19:32:22.831Z,-1.22
2023-02-27T19:34:31.498Z,-1.2
2023-02-27T19:36:41.403Z,-1.18
2023-02-27T19:38:50.081Z,-1.13
2023-02-27T19:41:12.283Z,-1.11
2023-02-27T19:43:22.993Z,-1.1
2023-02-27T19:45:30.966Z,-1.13
2023-02-27T19:47:47.311Z,-1.15
2023-02-27T19:49:58.534Z,-1.15
2023-02-27T19:52:12.128Z,-1.18
2023-02-27T19:54:21.689Z,-1.21
2023-02-27T19:56:31.504Z,-1.26
2023-02-27T19:58:43.874Z,-1.25
2023-02-27T20:01:00.249Z,-1.25
2023-02-27T20:03:09.297Z,-1.26
2023-02-27T20:05:19.796Z,-1.28
2023-02-27T20:07:32.600Z,-1.28
2023-02-27T20:09:43.234Z,-1.3
2023-02-27T20:11:52.484Z,-1.31
2023-02-27T20:14:01.206Z,-1.3
2023-02-27T20:16:10.213Z,-1.31
2023-02-27T20:18:21.425Z,-1.34
2023-02-27T20:20:32.089Z,-1.31
2023-02-27T20:22:41.711Z,-1.32
2023-02-27T20:24:54.167Z,-1.38
2023-02-27T20:27:04.367Z,-1.41
2023-02-27T20:29:15.691Z,-1.41
2023-02-27T20:31:24.715Z,-1.42
2023-02-27T20:33:36.667Z,-1.43
2023-02-27T20:35:45.597Z,-1.46
2023-02-27T20:37:55.009Z,-1.52
2023-02-27T20:40:09.990Z,-1.57
2023-02-27T20:42:20.155Z,-1.59
2023-02-27T20:44:30.948Z,-1.66
2023-02-27T20:46:38.833Z,-1.67
2023-02-27T20:48:58.378Z,-1.71
2023-02-27T20:51:10.325Z,-1.74
2023-02-27T20:53:19.640Z,-1.76
2023-02-27T20:55:30.542Z,-1.79
2023-02-27T20:57:44.443Z,-1.76
2023-02-27T20:59:56.093Z,-1.78
2023-02-27T21:02:04.292Z,-1.84
2023-02-27T21:04:14.103Z,-1.87
2023-02-27T21:06:22.027Z,-1.86
2023-02-27T21:08:28.908Z,-1.92
2023-02-27T21:10:36.513Z,-1.99
2023-02-27T21:12:43.153Z,-2.05
2023-02-27T21:14:54.921Z,-2.12
2023-02-27T21:17:09.919Z,-2.19
2023-02-27T21:19:18.188Z,-2.28
2023-02-27T21:21:25.585Z,-2.33
2023-02-27T21:23:36.172Z,-2.43
2023-02-27T21:25:44.947Z,-2.48
2023-02-27T21:27:51.827Z,-2.31
2023-02-27T21:29:59.816Z,-2.27
2023-02-27T21:32:07.201Z,-2.28
2023-02-27T21:34:14.554Z,-2.33
2023-02-27T21:36:24.624Z,-2.41
2023-02-27T21:38:31.468Z,-2.44
2023-02-27T21:40:38.396Z,-2.49
2023-02-27T21:42:44.940Z,-2.54
2023-02-27T21:44:50.674Z,-2.54
2023-02-27T21:46:57.127Z,-2.47
2023-02-27T21:49:03.537Z,-2.47
2023-02-27T21:51:09.052Z,-2.54
2023-02-27T21:53:14.505Z,-2.66
2023-02-27T21:55:20.756Z,-2.81
2023-02-27T21:57:26.155Z,-2.91
2023-02-27T21:59:31.506Z,-3.02
2023-02-27T22:01:36.786Z,-3.07
2023-02-27T22:03:42.556Z,-3.2
2023-02-27T22:05:48.083Z,-3.28
2023-02-27T22:07:54.150Z,-3.38
2023-02-27T22:09:59.525Z,-3.42
2023-02-27T22:12:05.037Z,-3.51
2023-02-27T22:14:10.412Z,-3.62
2023-02-27T22:16:16.128Z,-3.73
2023-02-27T22:18:22.090Z,-3.8
2023-02-27T22:20:27.813Z,-3.82
2023-02-27T22:22:33.735Z,-3.94
2023-02-27T22:24:39.094Z,-4.05
2023-02-27T22:26:44.737Z,-4.11
2023-02-27T22:28:49.949Z,-4.19
2023-02-27T22:30:55.609Z,-4.28
2023-02-27T22:33:01.291Z,-4.32
2023-02-27T22:35:06.822Z,-4.29
2023-02-27T22:37:12.200Z,-4.38
2023-02-27T22:39:17.735Z,-4.36
2023-02-27T22:41:23.445Z,-4.42
2023-02-27T22:43:29.922Z,-4.51
2023-02-27T22:45:35.500Z,-4.46
2023-02-27T22:47:40.989Z,-4.4
2023-02-27T22:49:46.486Z,-4.51
2023-02-27T22:51:51.892Z,-4.52
2023-02-27T22:53:57.543Z,-4.54
2023-02-27T22:56:05.921Z,-4.63
2023-02-27T22:58:11.206Z,-4.64
2023-02-27T23:00:17.232Z,-4.55
2023-02-27T23:02:23.228Z,-4.71
2023-02-27T23:04:28.751Z,-4.8
2023-02-27T23:06:34.257Z,-4.78
2023-02-27T23:08:39.640Z,-4.94
2023-02-27T23:10:45.022Z,-4.94
2023-02-27T23:12:50.060Z,-5
2023-02-27T23:14:55.500Z,-4.94
2023-02-27T23:17:00.900Z,-5.01
2023-02-27T23:19:06.189Z,-5.23
2023-02-27T23:21:11.452Z,-5.21
2023-02-27T23:23:16.687Z,-5.37
2023-02-27T23:25:23.398Z,-5.38
2023-02-27T23:27:28.587Z,-5.37
2023-02-27T23:29:34.155Z,-5.41
2023-02-27T23:31:39.792Z,-5.29
2023-02-27T23:33:45.327Z,-5.41
2023-02-27T23:35:50.640Z,-5.38
2023-02-27T23:37:56.306Z,-5.51
2023-02-27T23:40:01.603Z,-5.65
2023-02-27T23:42:06.866Z,-5.87
2023-02-27T23:44:12.818Z,-5.99
2023-02-27T23:46:18.376Z,-6
2023-02-27T23:48:23.770Z,-6.07
2023-02-27T23:50:29.601Z,-6.04
2023-02-27T23:52:35.439Z,-6.13
2023-02-27T23:54:41.204Z,-6.16
2023-02-27T23:56:46.603Z,-6.11
2023-02-27T23:58:52.066Z,-6.01
